createdAt,value
2019-05-07T00:00:08.414Z,99.99
2019-05-07T00:01:08.413Z,99.99
2019-05-07T00:02:08.396Z,99.99
2019-05-07T00:03:08.380Z,99.99
2019-05-07T00:04:08.367Z,99.99
2019-05-07T00:05:08.359Z,99.99
2019-05-07T00:06:08.369Z,99.99
2019-05-07T00:07:08.388Z,99.99
2019-05-07T00:08:08.350Z,99.99
2019-05-07T00:09:08.322Z,99.99
2019-05-07T00:10:08.307Z,99.99
2019-05-07T00:11:08.311Z,99.99
2019-05-07T00:12:08.285Z,99.99
2019-05-07T00:13:08.289Z,99.99
2019-05-07T00:14:08.276Z,99.99
2019-05-07T00:15:08.256Z,99.99
2019-05-07T00:16:08.264Z,99.99
2019-05-07T00:17:08.242Z,99.99
2019-05-07T00:18:08.226Z,99.99
2019-05-07T00:19:08.215Z,99.99
2019-05-07T00:20:08.208Z,99.99
2019-05-07T00:21:08.195Z,99.99
2019-05-07T00:22:08.194Z,99.99
2019-05-07T00:23:08.179Z,99.99
2019-05-07T00:24:08.163Z,99.99
2019-05-07T00:25:08.168Z,99.99
2019-05-07T00:26:08.153Z,99.99
2019-05-07T00:27:08.156Z,99.99
2019-05-07T00:28:08.121Z,99.99
2019-05-07T00:29:08.123Z,99.99
2019-05-07T00:30:08.093Z,99.99
2019-05-07T00:31:08.081Z,99.99
2019-05-07T00:32:08.083Z,99.99
2019-05-07T00:33:08.070Z,99.99
2019-05-07T00:34:08.063Z,99.99
2019-05-07T00:35:08.080Z,99.99
2019-05-07T00:36:08.068Z,99.99
2019-05-07T00:37:08.044Z,99.99
2019-05-07T00:38:08.030Z,99.99
2019-05-07T00:39:08.004Z,99.99
2019-05-07T00:40:08.001Z,99.99
2019-05-07T00:41:07.991Z,99.99
2019-05-07T00:42:08.029Z,99.99
2019-05-07T00:43:07.955Z,99.99
2019-05-07T00:44:07.962Z,99.99
2019-05-07T00:45:16.814Z,99.99
2019-05-07T00:46:08.932Z,99.99
2019-05-07T00:47:07.958Z,99.99
2019-05-07T00:48:07.903Z,99.99
2019-05-07T00:49:07.898Z,99.99
2019-05-07T00:50:07.882Z,99.99
2019-05-07T00:51:07.875Z,99.99
2019-05-07T00:52:07.884Z,99.99
2019-05-07T00:53:07.861Z,99.99
2019-05-07T00:54:07.856Z,99.99
2019-05-07T00:55:07.827Z,99.99
2019-05-07T00:56:07.818Z,99.99
2019-05-07T00:57:07.832Z,99.99
2019-05-07T00:58:07.796Z,99.99
2019-05-07T00:59:07.801Z,99.99
2019-05-07T01:00:07.783Z,99.99
2019-05-07T01:01:07.769Z,99.99
2019-05-07T01:02:07.771Z,99.99
2019-05-07T01:03:07.752Z,99.99
2019-05-07T01:04:07.745Z,99.99
2019-05-07T01:05:07.721Z,99.99
2019-05-07T01:06:07.715Z,99.99
2019-05-07T01:07:07.738Z,99.99
2019-05-07T01:08:07.699Z,99.99
2019-05-07T01:09:07.697Z,99.99
2019-05-07T01:10:07.682Z,99.99
2019-05-07T01:11:07.663Z,99.99
2019-05-07T01:12:07.697Z,99.99
2019-05-07T01:13:07.643Z,99.99
2019-05-07T01:14:07.634Z,99.99
2019-05-07T01:15:07.615Z,99.99
2019-05-07T01:16:07.630Z,99.99
2019-05-07T01:17:07.615Z,99.99
2019-05-07T01:18:07.585Z,99.99
2019-05-07T01:19:07.584Z,99.99
2019-05-07T01:20:07.564Z,99.99
2019-05-07T01:21:08.187Z,99.99
2019-05-07T01:22:07.568Z,99.99
2019-05-07T01:23:07.578Z,99.99
2019-05-07T01:24:07.539Z,99.99
2019-05-07T01:25:07.518Z,99.99
2019-05-07T01:26:07.511Z,99.99
2019-05-07T01:27:07.493Z,99.99
2019-05-07T01:28:07.498Z,99.99
2019-05-07T01:29:07.486Z,99.99
2019-05-07T01:30:07.465Z,99.99
2019-05-07T01:31:07.487Z,99.99
2019-05-07T01:32:07.447Z,99.99
2019-05-07T01:33:07.443Z,99.99
2019-05-07T01:34:07.467Z,99.99
2019-05-07T01:35:07.451Z,99.99
2019-05-07T01:36:07.400Z,99.99
2019-05-07T01:37:07.395Z,99.99
2019-05-07T01:38:07.396Z,99.99
2019-05-07T01:39:07.365Z,99.99
2019-05-07T01:40:07.401Z,99.99
2019-05-07T01:41:07.365Z,99.99
2019-05-07T01:42:07.366Z,99.99
2019-05-07T01:43:07.350Z,99.99
2019-05-07T01:44:07.320Z,99.99
2019-05-07T01:45:07.348Z,99.99
2019-05-07T01:46:07.290Z,99.99
2019-05-07T01:47:07.281Z,99.99
2019-05-07T01:48:07.308Z,99.99
2019-05-07T01:49:07.281Z,99.99
2019-05-07T01:50:07.248Z,99.99
2019-05-07T01:51:07.245Z,99.99
2019-05-07T01:52:07.245Z,99.99
2019-05-07T01:53:07.229Z,99.99
2019-05-07T01:54:07.238Z,99.99
2019-05-07T01:55:07.229Z,99.99
2019-05-07T01:56:07.193Z,99.99
2019-05-07T01:57:07.184Z,99.99
2019-05-07T01:58:07.164Z,99.99
2019-05-07T01:59:07.196Z,99.99
2019-05-07T02:00:07.151Z,99.99
2019-05-07T02:01:07.144Z,99.99
2019-05-07T02:02:07.124Z,99.99
2019-05-07T02:03:07.128Z,99.99
2019-05-07T02:04:07.118Z,99.99
2019-05-07T02:05:07.116Z,99.99
2019-05-07T02:06:07.079Z,99.99
2019-05-07T02:07:07.095Z,99.99
2019-05-07T02:08:07.071Z,99.99
2019-05-07T02:09:10.135Z,99.99
2019-05-07T02:10:07.046Z,99.99
2019-05-07T02:11:07.034Z,99.99
2019-05-07T02:12:07.035Z,99.99
2019-05-07T02:13:07.012Z,99.99
2019-05-07T02:14:07.028Z,99.99
2019-05-07T02:15:07.002Z,99.99
2019-05-07T02:16:06.986Z,99.99
2019-05-07T02:17:06.991Z,99.99
2019-05-07T02:18:06.960Z,99.99
2019-05-07T02:19:06.962Z,99.99
2019-05-07T02:20:06.951Z,99.99
2019-05-07T02:21:06.946Z,99.99
2019-05-07T02:22:06.922Z,99.99
2019-05-07T02:23:06.918Z,99.99
2019-05-07T02:24:06.893Z,99.99
2019-05-07T02:25:07.001Z,99.99
2019-05-07T02:26:06.873Z,99.99
2019-05-07T02:27:06.860Z,99.99
2019-05-07T02:28:06.888Z,99.99
2019-05-07T02:29:06.841Z,99.99
2019-05-07T02:30:06.850Z,99.99
2019-05-07T02:31:06.813Z,99.99
2019-05-07T02:32:06.818Z,99.99
2019-05-07T02:33:06.843Z,99.99
2019-05-07T02:34:06.800Z,99.99
2019-05-07T02:35:06.791Z,99.99
2019-05-07T02:36:06.790Z,99.99
2019-05-07T02:37:06.770Z,99.99
2019-05-07T02:38:06.749Z,99.99
2019-05-07T02:39:06.731Z,99.99
2019-05-07T02:40:06.770Z,99.99
2019-05-07T02:41:06.748Z,99.99
2019-05-07T02:42:06.702Z,99.99
2019-05-07T02:43:06.696Z,99.99
2019-05-07T02:44:06.708Z,99.99
2019-05-07T02:45:06.695Z,99.99
2019-05-07T02:46:20.771Z,99.99
2019-05-07T02:47:07.653Z,99.99
2019-05-07T02:48:06.668Z,99.99
2019-05-07T02:49:06.630Z,99.99
2019-05-07T02:50:06.634Z,99.99
2019-05-07T02:51:06.621Z,99.99
2019-05-07T02:52:06.594Z,99.99
2019-05-07T02:53:06.587Z,99.99
2019-05-07T02:54:06.572Z,99.99
2019-05-07T02:55:06.573Z,99.99
2019-05-07T02:56:06.618Z,99.99
2019-05-07T02:57:06.594Z,99.99
2019-05-07T02:58:06.555Z,99.99
2019-05-07T02:59:06.535Z,99.99
2019-05-07T03:00:06.521Z,99.99
2019-05-07T03:01:06.511Z,99.99
2019-05-07T03:02:06.488Z,99.99
2019-05-07T03:03:06.511Z,99.99
2019-05-07T03:04:06.469Z,99.99
2019-05-07T03:05:06.459Z,99.99
2019-05-07T03:06:06.475Z,99.99
2019-05-07T03:07:06.674Z,99.99
2019-05-07T03:08:06.440Z,99.99
2019-05-07T03:09:06.428Z,99.99
2019-05-07T03:10:06.419Z,99.99
2019-05-07T03:11:06.463Z,99.99
2019-05-07T03:12:06.394Z,99.99
2019-05-07T03:13:06.378Z,99.99
2019-05-07T03:14:06.364Z,99.99
2019-05-07T03:15:06.357Z,99.99
2019-05-07T03:16:06.350Z,99.99
2019-05-07T03:17:06.347Z,99.99
2019-05-07T03:18:06.322Z,99.99
2019-05-07T03:19:06.321Z,99.99
2019-05-07T03:20:06.305Z,99.99
2019-05-07T03:21:06.298Z,99.99
2019-05-07T03:22:06.287Z,99.99
2019-05-07T03:23:06.286Z,99.99
2019-05-07T03:24:06.272Z,99.99
2019-05-07T03:25:06.249Z,99.99
2019-05-07T03:26:06.253Z,99.99
2019-05-07T03:27:06.271Z,99.99
2019-05-07T03:28:06.443Z,99.99
2019-05-07T03:29:06.206Z,99.99
2019-05-07T03:30:06.198Z,99.99
2019-05-07T03:31:06.537Z,99.99
2019-05-07T03:32:06.574Z,99.99
2019-05-07T03:33:07.267Z,99.99
2019-05-07T03:34:07.331Z,99.99
2019-05-07T03:35:07.420Z,99.99
2019-05-07T03:36:07.564Z,99.99
2019-05-07T03:37:06.775Z,99.99
2019-05-07T03:38:06.145Z,99.99
2019-05-07T03:39:06.111Z,99.99
2019-05-07T03:40:06.111Z,99.99
2019-05-07T03:41:06.131Z,99.99
2019-05-07T03:42:06.072Z,99.99
2019-05-07T03:43:06.570Z,99.99
2019-05-07T03:44:06.052Z,99.99
2019-05-07T03:45:06.062Z,99.99
2019-05-07T03:46:06.044Z,99.99
2019-05-07T03:47:06.454Z,99.99
2019-05-07T03:48:06.018Z,99.99
2019-05-07T03:49:06.233Z,99.99
2019-05-07T03:50:05.994Z,99.99
2019-05-07T03:51:05.977Z,99.99
2019-05-07T03:52:05.986Z,99.99
2019-05-07T03:53:05.966Z,99.99
2019-05-07T03:54:05.956Z,99.99
2019-05-07T03:55:05.940Z,99.99
2019-05-07T03:56:05.925Z,99.99
2019-05-07T03:57:11.344Z,99.99
2019-05-07T03:58:06.896Z,99.99
2019-05-07T03:59:05.881Z,99.99
2019-05-07T04:00:05.883Z,99.99
2019-05-07T04:01:05.890Z,99.99
2019-05-07T04:02:05.889Z,99.99
2019-05-07T04:03:05.844Z,99.99
2019-05-07T04:04:05.834Z,99.99
2019-05-07T04:05:05.814Z,99.99
2019-05-07T04:06:05.815Z,99.99
2019-05-07T04:07:05.820Z,99.99
2019-05-07T04:08:05.808Z,99.99
2019-05-07T04:09:05.785Z,99.99
2019-05-07T04:10:09.698Z,99.99
2019-05-07T04:11:05.759Z,99.99
2019-05-07T04:12:05.760Z,99.99
2019-05-07T04:13:05.729Z,99.99
2019-05-07T04:14:05.718Z,99.99
2019-05-07T04:15:05.723Z,99.99
2019-05-07T04:16:05.716Z,99.99
2019-05-07T04:17:21.189Z,99.99
2019-05-07T04:18:06.691Z,99.99
2019-05-07T04:19:05.674Z,99.99
2019-05-07T04:20:05.665Z,99.99
2019-05-07T04:21:05.665Z,99.99
2019-05-07T04:22:05.651Z,99.99
2019-05-07T04:23:05.669Z,99.99
2019-05-07T04:24:05.653Z,99.99
2019-05-07T04:25:05.613Z,99.99
2019-05-07T04:26:05.601Z,99.99
2019-05-07T04:27:05.590Z,99.99
2019-05-07T04:28:05.609Z,99.99
2019-05-07T04:29:06.375Z,99.99
2019-05-07T04:30:05.576Z,99.99
2019-05-07T04:31:05.559Z,99.99
2019-05-07T04:32:05.550Z,99.99
2019-05-07T04:33:05.524Z,99.99
2019-05-07T04:34:05.512Z,99.99
2019-05-07T04:35:05.515Z,99.99
2019-05-07T04:36:05.540Z,99.99
2019-05-07T04:37:05.507Z,99.99
2019-05-07T04:38:06.991Z,99.99
2019-05-07T04:39:05.447Z,99.99
2019-05-07T04:40:05.449Z,99.99
2019-05-07T04:41:05.427Z,99.99
2019-05-07T04:42:05.421Z,99.99
2019-05-07T04:43:05.427Z,99.99
2019-05-07T04:44:05.413Z,99.99
2019-05-07T04:45:05.398Z,99.99
2019-05-07T04:46:05.383Z,99.99
2019-05-07T04:47:05.386Z,99.99
2019-05-07T04:48:05.370Z,99.99
2019-05-07T04:49:05.359Z,99.82
2019-05-07T04:50:05.340Z,99.51
2019-05-07T04:51:05.327Z,99.99
2019-05-07T04:52:05.343Z,99.71
2019-05-07T04:53:05.308Z,99.15
2019-05-07T04:54:05.316Z,99.25
2019-05-07T04:55:05.308Z,98.83
2019-05-07T04:56:05.282Z,99.25
2019-05-07T04:57:05.272Z,99.15
2019-05-07T04:58:08.843Z,98.73
2019-05-07T04:59:05.236Z,98.73
2019-05-07T05:00:05.242Z,98.73
2019-05-07T05:01:05.210Z,98.83
2019-05-07T05:02:05.203Z,99.04
2019-05-07T05:03:05.248Z,97.90
2019-05-07T05:04:24.496Z,97.69
2019-05-07T05:05:06.180Z,98.42
2019-05-07T05:06:05.162Z,98.73
2019-05-07T05:07:05.162Z,98.32
2019-05-07T05:08:05.183Z,98.32
2019-05-07T05:09:05.226Z,98.17
2019-05-07T05:10:05.150Z,98.00
2019-05-07T05:11:05.115Z,97.75
2019-05-07T05:12:05.105Z,97.49
2019-05-07T05:13:05.114Z,97.34
2019-05-07T05:14:07.708Z,97.55
2019-05-07T05:15:05.076Z,97.34
2019-05-07T05:16:05.085Z,97.13
2019-05-07T05:17:05.071Z,97.44
2019-05-07T05:18:05.046Z,97.55
2019-05-07T05:19:05.073Z,97.49
2019-05-07T05:20:05.028Z,97.75
2019-05-07T05:21:04.997Z,97.75
2019-05-07T05:22:05.039Z,97.55
2019-05-07T05:23:04.995Z,98.07
2019-05-07T05:24:04.992Z,97.75
2019-05-07T05:25:04.981Z,97.96
2019-05-07T05:26:04.954Z,97.75
2019-05-07T05:27:04.949Z,97.09
2019-05-07T05:28:04.952Z,97.39
2019-05-07T05:29:04.918Z,97.39
2019-05-07T05:30:04.920Z,97.39
2019-05-07T05:31:04.906Z,96.98
2019-05-07T05:32:04.881Z,96.94
2019-05-07T05:33:04.881Z,96.94
2019-05-07T05:34:04.879Z,96.62
2019-05-07T05:35:04.898Z,96.94
2019-05-07T05:36:04.842Z,96.94
2019-05-07T05:37:04.828Z,96.73
2019-05-07T05:38:04.841Z,96.94
2019-05-07T05:39:04.831Z,96.52
2019-05-07T05:40:08.691Z,96.52
2019-05-07T05:41:04.797Z,96.94
2019-05-07T05:42:04.794Z,96.52
2019-05-07T05:43:04.764Z,96.52
2019-05-07T05:44:04.793Z,97.04
2019-05-07T05:45:04.768Z,96.37
2019-05-07T05:46:04.747Z,96.79
2019-05-07T05:47:04.750Z,96.48
2019-05-07T05:48:08.241Z,96.48
2019-05-07T05:49:04.718Z,96.79
2019-05-07T05:50:04.691Z,96.79
2019-05-07T05:51:04.677Z,96.48
2019-05-07T05:52:04.714Z,96.17
2019-05-07T05:53:04.667Z,96.27
2019-05-07T05:54:04.666Z,96.44
2019-05-07T05:55:04.636Z,96.33
2019-05-07T05:56:04.638Z,96.33
2019-05-07T05:57:04.709Z,96.33
2019-05-07T05:58:04.625Z,95.19
2019-05-07T05:59:04.615Z,95.50
2019-05-07T06:00:04.585Z,94.94
2019-05-07T06:01:04.592Z,95.09
2019-05-07T06:02:06.595Z,94.89
2019-05-07T06:03:04.551Z,94.84
2019-05-07T06:04:04.556Z,94.53
2019-05-07T06:05:04.568Z,95.04
2019-05-07T06:06:04.519Z,95.00
2019-05-07T06:07:10.760Z,94.48
2019-05-07T06:08:05.502Z,95.10
2019-05-07T06:09:04.502Z,96.24
2019-05-07T06:10:04.475Z,96.34
2019-05-07T06:11:04.492Z,96.34
2019-05-07T06:12:04.462Z,96.45
2019-05-07T06:13:04.461Z,96.14
2019-05-07T06:14:04.449Z,95.62
2019-05-07T06:15:04.432Z,95.62
2019-05-07T06:16:04.421Z,95.99
2019-05-07T06:17:04.449Z,95.17
2019-05-07T06:18:17.898Z,95.06
2019-05-07T06:19:05.401Z,95.48
2019-05-07T06:20:04.382Z,95.17
2019-05-07T06:21:04.367Z,94.75
2019-05-07T06:22:04.357Z,95.06
2019-05-07T06:23:04.378Z,94.96
2019-05-07T06:24:04.345Z,94.92
2019-05-07T06:25:04.321Z,95.43
2019-05-07T06:26:05.278Z,95.02
2019-05-07T06:27:04.303Z,95.02
2019-05-07T06:28:04.285Z,94.29
2019-05-07T06:29:04.298Z,94.19
2019-05-07T06:30:05.005Z,95.18
2019-05-07T06:31:04.279Z,94.92
2019-05-07T06:32:04.247Z,94.97
2019-05-07T06:33:04.233Z,94.77
2019-05-07T06:34:04.266Z,94.15
2019-05-07T06:35:04.264Z,93.94
2019-05-07T06:36:04.219Z,93.94
2019-05-07T06:37:04.231Z,93.84
2019-05-07T06:38:04.233Z,94.25
2019-05-07T06:39:04.191Z,94.04
2019-05-07T06:40:04.160Z,94.25
2019-05-07T06:41:04.168Z,94.15
2019-05-07T06:42:04.141Z,94.35
2019-05-07T06:43:04.149Z,94.93
2019-05-07T06:44:04.179Z,95.03
2019-05-07T06:45:04.112Z,94.93
2019-05-07T06:46:04.119Z,94.82
2019-05-07T06:47:04.126Z,94.17
2019-05-07T06:48:04.075Z,94.06
2019-05-07T06:49:04.077Z,93.85
2019-05-07T06:50:04.061Z,94.17
2019-05-07T06:51:04.060Z,94.17
2019-05-07T06:52:04.069Z,93.44
2019-05-07T06:53:04.033Z,92.57
2019-05-07T06:54:04.034Z,92.68
2019-05-07T06:55:04.033Z,92.27
2019-05-07T06:56:03.994Z,92.27
2019-05-07T06:57:03.977Z,93.35
2019-05-07T06:58:03.965Z,92.22
2019-05-07T06:59:04.181Z,92.12
2019-05-07T07:00:03.969Z,91.81
2019-05-07T07:01:03.949Z,91.05
2019-05-07T07:02:05.669Z,89.44
2019-05-07T07:03:03.913Z,90.12
2019-05-07T07:04:03.909Z,89.09
2019-05-07T07:05:03.908Z,89.40
2019-05-07T07:06:03.878Z,87.96
2019-05-07T07:07:03.905Z,88.95
2019-05-07T07:08:03.862Z,86.99
2019-05-07T07:09:03.866Z,86.68
2019-05-07T07:10:03.869Z,86.74
2019-05-07T07:11:03.867Z,83.14
2019-05-07T07:12:03.821Z,82.90
2019-05-07T07:13:03.829Z,86.91
2019-05-07T07:14:03.796Z,85.63
2019-05-07T07:15:03.798Z,85.53
2019-05-07T07:16:03.776Z,85.49
2019-05-07T07:17:03.765Z,85.39
2019-05-07T07:18:03.755Z,84.67
2019-05-07T07:19:03.750Z,85.39
2019-05-07T07:20:03.845Z,82.41
2019-05-07T07:21:03.719Z,83.44
2019-05-07T07:22:03.714Z,81.79
2019-05-07T07:23:03.702Z,82.37
2019-05-07T07:24:03.718Z,79.80
2019-05-07T07:25:06.451Z,80.56
2019-05-07T07:26:03.676Z,80.66
2019-05-07T07:27:03.667Z,76.90
2019-05-07T07:28:03.667Z,81.01
2019-05-07T07:29:03.635Z,82.45
2019-05-07T07:30:03.657Z,83.06
2019-05-07T07:31:03.621Z,82.45
2019-05-07T07:32:03.598Z,82.65
2019-05-07T07:33:03.590Z,82.76
2019-05-07T07:34:03.597Z,83.27
2019-05-07T07:35:03.586Z,83.48
2019-05-07T07:36:03.559Z,82.28
2019-05-07T07:37:09.023Z,81.93
2019-05-07T07:38:04.539Z,82.34
2019-05-07T07:39:03.555Z,78.92
2019-05-07T07:40:03.537Z,80.49
2019-05-07T07:41:05.423Z,82.10
2019-05-07T07:42:03.514Z,82.24
2019-05-07T07:43:06.780Z,80.19
2019-05-07T07:44:03.504Z,80.97
2019-05-07T07:45:03.503Z,78.92
2019-05-07T07:46:03.459Z,80.63
2019-05-07T07:47:03.454Z,80.11
2019-05-07T07:48:03.429Z,77.95
2019-05-07T07:49:10.672Z,79.60
2019-05-07T07:50:04.442Z,77.10
2019-05-07T07:51:03.567Z,79.05
2019-05-07T07:52:03.429Z,78.98
2019-05-07T07:53:03.400Z,78.23
2019-05-07T07:54:03.374Z,78.47
2019-05-07T07:55:03.356Z,76.21
2019-05-07T07:56:03.397Z,77.55
2019-05-07T07:57:03.359Z,76.72
2019-05-07T07:58:03.328Z,75.49
2019-05-07T07:59:03.344Z,77.37
2019-05-07T08:00:03.310Z,77.48
2019-05-07T08:01:03.307Z,77.17
2019-05-07T08:02:03.330Z,75.52
2019-05-07T08:03:03.303Z,75.63
2019-05-07T08:04:03.276Z,75.73
2019-05-07T08:05:03.253Z,75.59
2019-05-07T08:06:03.272Z,76.82
2019-05-07T08:07:03.355Z,77.10
2019-05-07T08:08:03.229Z,75.04
2019-05-07T08:09:07.507Z,75.01
2019-05-07T08:10:05.733Z,75.49
2019-05-07T08:11:42.754Z,75.28
2019-05-07T08:12:03.316Z,75.08
2019-05-07T08:13:03.159Z,75.35
2019-05-07T08:14:03.152Z,71.25
2019-05-07T08:15:14.667Z,71.66
2019-05-07T08:16:04.161Z,71.66
2019-05-07T08:17:03.117Z,70.22
2019-05-07T08:18:03.112Z,73.64
2019-05-07T08:19:03.106Z,73.95
2019-05-07T08:20:03.097Z,73.33
2019-05-07T08:21:03.099Z,75.49
2019-05-07T08:22:03.198Z,73.23
2019-05-07T08:23:03.141Z,73.98
2019-05-07T08:24:03.057Z,74.08
2019-05-07T08:25:03.056Z,72.10
2019-05-07T08:26:03.048Z,70.90
2019-05-07T08:27:03.020Z,74.36
2019-05-07T08:28:03.038Z,73.36
2019-05-07T08:29:03.070Z,73.68
2019-05-07T08:30:03.054Z,71.72
2019-05-07T08:31:03.085Z,74.19
2019-05-07T08:32:03.035Z,75.42
2019-05-07T08:33:02.968Z,70.50
2019-05-07T08:34:02.949Z,72.34
2019-05-07T08:35:02.960Z,73.57
2019-05-07T08:36:02.920Z,74.87
2019-05-07T08:37:02.922Z,71.48
2019-05-07T08:38:02.943Z,70.67
2019-05-07T08:39:02.916Z,72.00
2019-05-07T08:40:03.220Z,68.51
2019-05-07T08:41:02.902Z,69.13
2019-05-07T08:42:02.867Z,67.56
2019-05-07T08:43:03.355Z,69.10
2019-05-07T08:44:11.488Z,68.59
2019-05-07T08:45:03.900Z,68.68
2019-05-07T08:46:02.829Z,71.04
2019-05-07T08:47:02.858Z,70.43
2019-05-07T08:48:02.795Z,68.89
2019-05-07T08:49:02.779Z,69.54
2019-05-07T08:50:02.983Z,70.15
2019-05-07T08:51:02.774Z,71.28
2019-05-07T08:52:03.778Z,71.69
2019-05-07T08:53:02.879Z,68.82
2019-05-07T08:54:02.726Z,71.08
2019-05-07T08:55:02.719Z,70.56
2019-05-07T08:56:03.288Z,70.26
2019-05-07T08:57:02.714Z,71.80
2019-05-07T08:58:02.700Z,71.48
2019-05-07T08:59:02.679Z,69.06
2019-05-07T09:00:04.723Z,71.90
2019-05-07T09:01:03.177Z,69.02
2019-05-07T09:02:03.094Z,68.72
2019-05-07T09:03:02.632Z,70.05
2019-05-07T09:04:02.623Z,67.59
2019-05-07T09:05:03.103Z,67.59
2019-05-07T09:06:02.597Z,66.77
2019-05-07T09:07:02.920Z,68.82
2019-05-07T09:08:02.582Z,69.67
2019-05-07T09:09:02.582Z,69.13
2019-05-07T09:10:02.690Z,67.62
2019-05-07T09:11:02.539Z,69.06
2019-05-07T09:12:03.143Z,71.01
2019-05-07T09:13:02.890Z,71.11
2019-05-07T09:14:02.514Z,70.80
2019-05-07T09:15:02.548Z,69.09
2019-05-07T09:16:02.523Z,69.29
2019-05-07T09:17:02.935Z,71.25
2019-05-07T09:18:02.469Z,69.40
2019-05-07T09:19:02.449Z,68.57
2019-05-07T09:20:02.741Z,67.35
2019-05-07T09:21:02.435Z,70.84
2019-05-07T09:22:02.438Z,70.22
2019-05-07T09:23:02.448Z,72.68
2019-05-07T09:24:02.593Z,71.08
2019-05-07T09:25:03.078Z,71.89
2019-05-07T09:26:02.830Z,71.69
2019-05-07T09:27:02.770Z,72.41
2019-05-07T09:28:02.716Z,72.41
2019-05-07T09:29:02.695Z,72.82
2019-05-07T09:30:02.805Z,72.75
2019-05-07T09:31:02.325Z,71.00
2019-05-07T09:32:03.055Z,72.65
2019-05-07T09:33:02.600Z,72.65
2019-05-07T09:34:02.691Z,72.65
2019-05-07T09:35:02.446Z,72.65
2019-05-07T09:36:02.407Z,72.24
2019-05-07T09:37:02.468Z,72.24
2019-05-07T09:38:03.160Z,72.13
2019-05-07T09:39:02.795Z,71.41
2019-05-07T09:40:02.813Z,72.75
2019-05-07T09:41:02.768Z,71.62
2019-05-07T09:42:02.300Z,71.04
2019-05-07T09:43:02.609Z,70.32
2019-05-07T09:44:03.190Z,72.78
2019-05-07T09:45:02.222Z,75.01
2019-05-07T09:46:02.681Z,75.25
2019-05-07T09:47:02.735Z,75.76
2019-05-07T09:48:02.822Z,75.97
2019-05-07T09:49:03.058Z,77.51
2019-05-07T09:50:07.163Z,72.99
2019-05-07T09:51:03.132Z,74.33
2019-05-07T09:52:03.248Z,72.78
2019-05-07T09:53:02.404Z,75.67
2019-05-07T09:54:02.534Z,74.33
2019-05-07T09:55:11.069Z,72.99
2019-05-07T09:56:03.053Z,73.50
2019-05-07T09:57:02.069Z,75.15
2019-05-07T09:58:02.219Z,78.20
2019-05-07T09:59:02.276Z,76.69
2019-05-07T10:00:02.368Z,77.06
2019-05-07T10:01:02.192Z,77.27
2019-05-07T10:02:02.031Z,71.75
2019-05-07T10:03:02.001Z,70.52
2019-05-07T10:04:02.623Z,72.55
2019-05-07T10:05:02.515Z,72.85
2019-05-07T10:06:02.371Z,71.62
2019-05-07T10:07:02.538Z,72.51
2019-05-07T10:08:02.050Z,73.54
2019-05-07T10:09:02.841Z,72.72
2019-05-07T10:10:03.228Z,72.68
2019-05-07T10:11:02.706Z,72.48
2019-05-07T10:12:02.782Z,72.78
2019-05-07T10:13:01.987Z,71.31
2019-05-07T10:14:02.031Z,69.23
2019-05-07T10:15:03.094Z,70.56
2019-05-07T10:16:03.850Z,67.49
2019-05-07T10:17:02.768Z,68.68
2019-05-07T10:18:01.939Z,67.76
2019-05-07T10:19:01.825Z,66.12
2019-05-07T10:20:04.434Z,66.84
2019-05-07T10:21:02.824Z,68.27
2019-05-07T10:22:02.346Z,67.86
2019-05-07T10:23:02.465Z,68.86
2019-05-07T10:24:02.380Z,68.83
2019-05-07T10:25:02.875Z,66.85
2019-05-07T10:26:01.884Z,65.94
2019-05-07T10:27:02.283Z,66.93
2019-05-07T10:28:02.024Z,62.66
2019-05-07T10:29:02.209Z,64.89
2019-05-07T10:30:02.370Z,64.51
2019-05-07T10:31:01.684Z,63.79
2019-05-07T10:32:02.208Z,65.15
2019-05-07T10:33:01.837Z,64.43
2019-05-07T10:34:03.042Z,65.56
2019-05-07T10:35:02.243Z,64.98
2019-05-07T10:36:02.143Z,64.98
2019-05-07T10:37:02.689Z,62.62
2019-05-07T10:38:02.042Z,65.83
2019-05-07T10:39:02.520Z,66.75
2019-05-07T10:40:03.131Z,66.13
2019-05-07T10:41:02.834Z,65.14
2019-05-07T10:42:01.898Z,64.12
2019-05-07T10:43:01.550Z,65.24
2019-05-07T10:44:02.545Z,66.37
2019-05-07T10:45:03.091Z,67.19
2019-05-07T10:46:02.358Z,67.19
2019-05-07T10:47:01.996Z,65.27
2019-05-07T10:48:02.524Z,67.43
2019-05-07T10:49:01.957Z,67.46
2019-05-07T10:50:02.878Z,67.14
2019-05-07T10:51:02.147Z,67.25
2019-05-07T10:52:02.142Z,68.41
2019-05-07T10:53:02.065Z,68.92
2019-05-07T10:54:02.252Z,69.54
2019-05-07T10:55:02.925Z,70.77
2019-05-07T10:56:02.670Z,71.39
2019-05-07T10:57:01.424Z,71.93
2019-05-07T10:58:03.027Z,70.90
2019-05-07T10:59:02.903Z,72.65
2019-05-07T11:00:03.169Z,72.89
2019-05-07T11:01:02.900Z,73.40
2019-05-07T11:02:02.447Z,74.02
2019-05-07T11:03:02.393Z,73.19
2019-05-07T11:04:02.231Z,74.12
2019-05-07T11:05:02.317Z,73.50
2019-05-07T11:06:01.308Z,73.10
2019-05-07T11:07:01.290Z,72.99
2019-05-07T11:08:02.084Z,73.81
2019-05-07T11:09:01.282Z,72.58
2019-05-07T11:10:01.951Z,73.50
2019-05-07T11:11:02.943Z,73.40
2019-05-07T11:12:02.584Z,74.22
2019-05-07T11:13:02.351Z,73.16
2019-05-07T11:14:01.958Z,72.55
2019-05-07T11:15:02.194Z,72.75
2019-05-07T11:16:02.423Z,72.44
2019-05-07T11:17:02.603Z,72.65
2019-05-07T11:18:02.702Z,71.93
2019-05-07T11:19:02.033Z,71.45
2019-05-07T11:20:01.162Z,70.80
2019-05-07T11:21:03.098Z,71.01
2019-05-07T11:22:01.141Z,71.76
2019-05-07T11:23:02.661Z,71.14
2019-05-07T11:24:03.249Z,71.35
2019-05-07T11:25:03.010Z,71.25
2019-05-07T11:26:02.602Z,71.04
2019-05-07T11:27:02.419Z,69.19
2019-05-07T11:28:02.865Z,70.12
2019-05-07T11:29:02.389Z,69.06
2019-05-07T11:30:02.694Z,69.98
2019-05-07T11:31:02.115Z,69.06
2019-05-07T11:32:01.032Z,68.65
2019-05-07T11:33:02.723Z,67.59
2019-05-07T11:34:02.775Z,69.02
2019-05-07T11:35:02.962Z,67.38
2019-05-07T11:36:02.139Z,67.38
2019-05-07T11:37:02.431Z,67.66
2019-05-07T11:38:10.980Z,68.10
2019-05-07T11:39:01.985Z,67.28
2019-05-07T11:40:03.029Z,65.84
2019-05-07T11:41:02.283Z,66.74
2019-05-07T11:42:02.382Z,66.91
2019-05-07T11:43:02.460Z,67.02
2019-05-07T11:44:01.791Z,65.78
2019-05-07T11:45:02.170Z,66.47
2019-05-07T11:46:02.003Z,66.16
2019-05-07T11:47:02.985Z,65.31
2019-05-07T11:48:01.890Z,65.49
2019-05-07T11:49:00.847Z,61.29
2019-05-07T11:50:03.060Z,63.72
2019-05-07T11:51:04.120Z,63.39
2019-05-07T11:52:00.846Z,62.26
2019-05-07T11:53:00.803Z,61.24
2019-05-07T11:54:02.107Z,59.88
2019-05-07T11:55:03.016Z,61.41
2019-05-07T11:56:02.522Z,61.38
2019-05-07T11:57:02.671Z,61.69
2019-05-07T11:58:02.433Z,60.16
2019-05-07T11:59:02.661Z,59.72
2019-05-07T12:00:02.797Z,58.93
2019-05-07T12:01:03.671Z,59.23
2019-05-07T12:02:00.713Z,59.44
2019-05-07T12:03:02.286Z,58.70
2019-05-07T12:04:01.995Z,58.70
2019-05-07T12:05:02.019Z,57.27
2019-05-07T12:06:02.100Z,59.11
2019-05-07T12:07:02.590Z,59.52
2019-05-07T12:08:02.346Z,58.50
2019-05-07T12:09:02.874Z,59.31
2019-05-07T12:10:04.669Z,59.11
2019-05-07T12:11:02.337Z,58.80
2019-05-07T12:12:02.388Z,59.41
2019-05-07T12:13:02.395Z,59.72
2019-05-07T12:14:02.077Z,59.75
2019-05-07T12:15:02.451Z,59.23
2019-05-07T12:16:02.723Z,58.83
2019-05-07T12:17:02.581Z,58.45
2019-05-07T12:18:02.764Z,58.96
2019-05-07T12:19:02.225Z,59.88
2019-05-07T12:20:02.342Z,59.67
2019-05-07T12:21:03.754Z,58.78
2019-05-07T12:22:02.739Z,59.78
2019-05-07T12:23:02.612Z,59.47
2019-05-07T12:24:02.116Z,60.60
2019-05-07T12:25:02.507Z,58.98
2019-05-07T12:26:02.287Z,59.09
2019-05-07T12:27:02.498Z,59.60
2019-05-07T12:28:02.439Z,59.47
2019-05-07T12:29:00.417Z,60.21
2019-05-07T12:30:00.407Z,58.98
2019-05-07T12:31:00.425Z,59.39
2019-05-07T12:32:02.502Z,59.91
2019-05-07T12:33:02.295Z,56.10
2019-05-07T12:34:02.421Z,58.86
2019-05-07T12:35:02.260Z,59.78
2019-05-07T12:36:01.964Z,58.65
2019-05-07T12:37:01.674Z,59.27
2019-05-07T12:38:02.102Z,57.09
2019-05-07T12:39:02.108Z,57.91
2019-05-07T12:40:01.854Z,58.01
2019-05-07T12:41:01.993Z,57.48
2019-05-07T12:42:00.280Z,58.60
2019-05-07T12:43:01.934Z,58.06
2019-05-07T12:44:02.347Z,54.82
2019-05-07T12:45:02.179Z,55.07
2019-05-07T12:46:02.697Z,53.34
2019-05-07T12:47:01.743Z,51.99
2019-05-07T12:48:02.249Z,53.80
2019-05-07T12:49:02.856Z,50.31
2019-05-07T12:50:00.190Z,49.70
2019-05-07T12:51:00.210Z,48.86
2019-05-07T12:52:02.167Z,46.03